createdAt,value
2018-12-30T00:00:08.333Z,125.75
2018-12-30T00:02:41.268Z,130.75
2018-12-30T00:05:13.242Z,131.00
2018-12-30T00:07:44.700Z,130.00
2018-12-30T00:10:16.502Z,134.75
2018-12-30T00:12:47.882Z,128.50
2018-12-30T00:15:19.962Z,134.00
2018-12-30T00:17:51.771Z,134.75
2018-12-30T00:20:23.346Z,134.25
2018-12-30T00:22:54.714Z,136.00
2018-12-30T00:25:26.131Z,139.50
2018-12-30T00:27:57.786Z,141.50
2018-12-30T00:30:29.570Z,124.00
2018-12-30T00:33:01.049Z,135.75
2018-12-30T00:35:32.521Z,135.00
2018-12-30T00:38:03.924Z,128.00
2018-12-30T00:40:35.225Z,143.00
2018-12-30T00:43:06.622Z,129.50
2018-12-30T00:45:38.122Z,136.50
2018-12-30T00:48:09.937Z,137.25
2018-12-30T00:50:41.659Z,137.50
2018-12-30T00:53:13.057Z,141.00
2018-12-30T00:55:44.287Z,135.50
2018-12-30T00:58:15.745Z,133.50
2018-12-30T01:00:47.585Z,131.00
2018-12-30T01:03:19.230Z,137.25
2018-12-30T01:05:51.822Z,133.75
2018-12-30T01:08:23.380Z,141.75
2018-12-30T01:10:54.709Z,143.25
2018-12-30T01:13:26.832Z,147.75
2018-12-30T01:15:58.169Z,142.25
2018-12-30T01:18:30.127Z,144.00
2018-12-30T01:21:01.535Z,143.00
2018-12-30T01:23:33.284Z,139.50
2018-12-30T01:26:04.740Z,142.50
2018-12-30T01:28:36.173Z,136.00
2018-12-30T01:31:07.513Z,127.75
2018-12-30T01:33:39.247Z,133.25
2018-12-30T01:36:10.965Z,149.75
2018-12-30T01:38:42.430Z,151.25
2018-12-30T01:41:13.790Z,156.50
2018-12-30T01:43:44.896Z,151.75
2018-12-30T01:46:16.538Z,153.50
2018-12-30T01:48:48.290Z,150.00
2018-12-30T01:51:20.012Z,154.25
2018-12-30T01:53:51.712Z,137.00
2018-12-30T01:56:23.433Z,165.00
2018-12-30T01:58:55.170Z,147.25
2018-12-30T02:01:26.434Z,169.75
2018-12-30T02:03:57.745Z,152.00
2018-12-30T02:06:29.342Z,167.25
2018-12-30T02:09:01.217Z,149.25
2018-12-30T02:11:34.096Z,157.75
2018-12-30T02:14:05.583Z,134.50
2018-12-30T02:16:37.046Z,168.75
2018-12-30T02:19:09.405Z,154.50
2018-12-30T02:21:41.134Z,184.50
2018-12-30T02:24:12.808Z,169.50
2018-12-30T02:26:44.214Z,180.00
2018-12-30T02:29:15.801Z,174.75
2018-12-30T02:31:47.207Z,180.50
2018-12-30T02:34:22.222Z,179.00
2018-12-30T02:36:53.724Z,187.75
2018-12-30T02:39:24.923Z,193.25
2018-12-30T02:41:56.758Z,182.50
2018-12-30T02:44:28.387Z,190.00
2018-12-30T02:47:00.578Z,186.25
2018-12-30T02:49:32.422Z,185.25
2018-12-30T02:52:03.955Z,186.75
2018-12-30T02:54:35.560Z,193.75
2018-12-30T02:57:07.185Z,212.25
2018-12-30T02:59:38.630Z,215.80
2018-12-30T03:02:10.301Z,210.40
2018-12-30T03:04:41.612Z,230.60
2018-12-30T03:07:15.541Z,226.80
2018-12-30T03:09:47.266Z,230.00
2018-12-30T03:12:18.596Z,237.80
2018-12-30T03:14:49.822Z,247.20
2018-12-30T03:17:21.455Z,247.20
2018-12-30T03:19:53.101Z,250.00
2018-12-30T03:22:24.640Z,267.67
2018-12-30T03:24:56.112Z,266.60
2018-12-30T03:27:27.893Z,276.00
2018-12-30T03:29:59.244Z,277.00
2018-12-30T03:32:31.080Z,260.60
2018-12-30T03:35:02.677Z,245.40
2018-12-30T03:37:33.962Z,261.80
2018-12-30T03:40:06.162Z,259.40
2018-12-30T03:42:37.473Z,262.40
2018-12-30T03:45:11.977Z,241.20
2018-12-30T03:47:43.767Z,249.50
2018-12-30T03:50:16.488Z,233.00
2018-12-30T03:52:47.907Z,240.60
2018-12-30T03:55:19.217Z,228.20
2018-12-30T03:57:50.854Z,221.60
2018-12-30T04:00:22.018Z,214.00
2018-12-30T04:02:53.619Z,225.80
2018-12-30T04:05:24.968Z,234.40
2018-12-30T04:07:56.652Z,212.50
2018-12-30T04:10:28.110Z,198.75
2018-12-30T04:12:59.842Z,199.00
2018-12-30T04:15:31.198Z,195.75
2018-12-30T04:18:02.751Z,178.25
2018-12-30T04:20:34.423Z,200.00
2018-12-30T04:23:05.700Z,179.50
2018-12-30T04:25:37.437Z,179.25
2018-12-30T04:28:11.948Z,168.50
2018-12-30T04:30:43.326Z,177.50
2018-12-30T04:33:14.899Z,171.25
2018-12-30T04:35:46.569Z,174.50
2018-12-30T04:38:18.136Z,179.50
2018-12-30T04:40:49.545Z,174.50
2018-12-30T04:43:20.995Z,179.50
2018-12-30T04:45:52.436Z,180.25
2018-12-30T04:48:24.263Z,165.75
2018-12-30T04:50:56.180Z,168.75
2018-12-30T04:53:27.488Z,160.75
2018-12-30T04:55:58.890Z,148.00
2018-12-30T04:58:30.629Z,157.75
2018-12-30T05:01:02.360Z,160.75
2018-12-30T05:03:33.864Z,157.75
2018-12-30T05:06:05.111Z,146.00
2018-12-30T05:08:36.517Z,148.50
2018-12-30T05:11:07.819Z,137.00
2018-12-30T05:13:39.010Z,154.00
2018-12-30T05:16:10.823Z,138.00
2018-12-30T05:18:42.360Z,146.00
2018-12-30T05:21:14.356Z,146.75
2018-12-30T05:23:45.877Z,140.00
2018-12-30T05:26:17.087Z,143.25
2018-12-30T05:28:48.524Z,145.00
2018-12-30T05:31:20.468Z,145.75
2018-12-30T05:33:52.007Z,141.50
2018-12-30T05:36:23.652Z,141.25
2018-12-30T05:38:55.154Z,148.75
2018-12-30T05:41:26.397Z,136.25
2018-12-30T05:43:57.837Z,141.25
2018-12-30T05:46:28.924Z,138.25
2018-12-30T05:49:00.409Z,121.75
2018-12-30T05:51:32.194Z,124.25
2018-12-30T05:54:03.816Z,124.25
2018-12-30T05:56:35.106Z,131.50
2018-12-30T05:59:06.565Z,121.25
2018-12-30T06:01:37.710Z,142.50
2018-12-30T06:04:09.582Z,134.25
2018-12-30T06:06:41.224Z,136.25
2018-12-30T06:09:12.532Z,131.00
2018-12-30T06:11:43.730Z,138.00
2018-12-30T06:14:15.026Z,148.25
2018-12-30T06:16:46.684Z,155.25
2018-12-30T06:19:18.227Z,155.75
2018-12-30T06:21:49.932Z,146.25
2018-12-30T06:24:22.190Z,144.00
2018-12-30T06:26:53.615Z,149.25
2018-12-30T06:29:25.033Z,136.75
2018-12-30T06:31:56.569Z,129.50
2018-12-30T06:34:28.063Z,142.00
2018-12-30T06:36:59.430Z,137.00
2018-12-30T06:39:30.929Z,143.25
2018-12-30T06:42:02.361Z,135.00
2018-12-30T06:44:33.967Z,142.75
2018-12-30T06:47:05.573Z,133.75
2018-12-30T06:49:36.910Z,128.75
2018-12-30T06:52:08.697Z,129.00
2018-12-30T06:54:40.459Z,135.00
2018-12-30T06:57:11.832Z,129.75
2018-12-30T06:59:43.030Z,132.50
2018-12-30T07:02:14.546Z,123.50
2018-12-30T07:04:45.967Z,120.00
2018-12-30T07:07:17.177Z,113.00
2018-12-30T07:09:48.507Z,121.75
2018-12-30T07:12:20.039Z,116.75
2018-12-30T07:14:51.635Z,108.00
2018-12-30T07:17:22.885Z,117.75
2018-12-30T07:19:54.288Z,116.75
2018-12-30T07:22:25.951Z,114.25
2018-12-30T07:24:57.299Z,110.50
2018-12-30T07:27:28.876Z,114.50
2018-12-30T07:30:00.624Z,117.25
2018-12-30T07:32:31.894Z,116.50
2018-12-30T07:35:03.513Z,111.00
2018-12-30T07:37:35.042Z,109.25
2018-12-30T07:40:06.669Z,122.75
2018-12-30T07:42:38.155Z,109.00
2018-12-30T07:45:09.845Z,110.50
2018-12-30T07:47:41.034Z,116.50
2018-12-30T07:50:12.261Z,100.00
2018-12-30T07:52:44.291Z,116.50
2018-12-30T07:55:17.310Z,106.00
2018-12-30T07:57:48.750Z,105.50
2018-12-30T08:00:20.146Z,97.75
2018-12-30T08:02:52.544Z,102.50
2018-12-30T08:05:24.344Z,98.00
2018-12-30T08:07:55.974Z,106.00
2018-12-30T08:10:27.830Z,94.75
2018-12-30T08:12:59.373Z,108.25
2018-12-30T08:15:30.810Z,105.75
2018-12-30T08:18:02.239Z,102.50
2018-12-30T08:20:33.577Z,103.25
2018-12-30T08:23:05.491Z,102.25
2018-12-30T08:25:37.117Z,100.25
2018-12-30T08:28:09.084Z,91.80
2018-12-30T08:30:40.456Z,91.00
2018-12-30T08:33:12.063Z,84.80
2018-12-30T08:35:43.613Z,102.20
2018-12-30T08:38:15.029Z,100.40
2018-12-30T08:40:46.678Z,90.40
2018-12-30T08:43:18.310Z,80.00
2018-12-30T08:45:49.686Z,96.00
2018-12-30T08:48:21.390Z,90.40
2018-12-30T08:50:53.007Z,95.40
2018-12-30T08:53:29.316Z,92.40
2018-12-30T08:55:57.937Z,101.20
2018-12-30T08:58:29.185Z,91.80
2018-12-30T09:01:00.504Z,80.60
2018-12-30T09:03:32.249Z,93.20
2018-12-30T09:06:03.613Z,92.00
2018-12-30T09:08:34.757Z,84.80
2018-12-30T09:14:05.274Z,86.20
2018-12-30T09:16:36.731Z,90.20
2018-12-30T09:19:08.303Z,86.60
2018-12-30T09:21:39.848Z,79.80
2018-12-30T09:24:11.513Z,93.80
2018-12-30T09:26:42.966Z,97.40
2018-12-30T09:29:14.800Z,90.80
2018-12-30T09:31:46.309Z,89.60
2018-12-30T09:34:17.499Z,89.00
2018-12-30T09:36:49.033Z,90.40
2018-12-30T09:39:20.216Z,92.20
2018-12-30T09:41:51.848Z,94.00
2018-12-30T09:44:23.096Z,88.40
2018-12-30T09:46:54.678Z,92.40
2018-12-30T09:49:26.043Z,83.80
2018-12-30T09:51:58.749Z,85.20
2018-12-30T09:54:31.274Z,84.20
2018-12-30T09:57:03.411Z,87.80
2018-12-30T09:59:34.754Z,83.40
2018-12-30T10:02:06.169Z,69.60
2018-12-30T10:04:37.359Z,86.00
2018-12-30T10:07:08.603Z,74.60
2018-12-30T10:09:39.925Z,73.20
2018-12-30T10:12:11.708Z,82.20
2018-12-30T10:14:42.779Z,79.80
2018-12-30T10:17:14.278Z,81.40
2018-12-30T10:19:45.439Z,78.00
2018-12-30T10:22:17.305Z,82.00
2018-12-30T10:24:49.360Z,78.00
2018-12-30T10:27:20.881Z,76.00
2018-12-30T10:29:52.087Z,71.40
2018-12-30T10:32:23.719Z,74.20
2018-12-30T10:34:55.073Z,79.20
2018-12-30T10:37:26.493Z,79.60
2018-12-30T10:39:57.910Z,76.20
2018-12-30T10:42:29.480Z,76.80
2018-12-30T10:45:01.170Z,69.80
2018-12-30T10:47:33.956Z,68.80
2018-12-30T10:50:05.399Z,77.20
2018-12-30T10:52:36.808Z,69.00
2018-12-30T10:55:09.066Z,76.60
2018-12-30T10:57:40.962Z,76.80
2018-12-30T11:00:12.224Z,78.60
2018-12-30T11:02:43.573Z,80.40
2018-12-30T11:05:14.658Z,81.00
2018-12-30T11:07:46.161Z,77.60
2018-12-30T11:10:17.521Z,80.20
2018-12-30T11:12:48.905Z,79.20
2018-12-30T11:15:20.181Z,80.60
2018-12-30T11:17:51.571Z,86.20
2018-12-30T11:20:23.026Z,87.20
2018-12-30T11:22:54.359Z,89.80
2018-12-30T11:25:26.224Z,89.40
2018-12-30T11:27:57.563Z,92.20
2018-12-30T11:30:28.853Z,81.20
2018-12-30T11:33:00.403Z,86.00
2018-12-30T11:35:31.855Z,85.00
2018-12-30T11:38:03.179Z,82.00
2018-12-30T11:40:34.657Z,84.40
2018-12-30T11:43:05.947Z,89.80
2018-12-30T11:45:37.310Z,77.60
2018-12-30T11:48:08.822Z,81.20
2018-12-30T11:50:40.490Z,88.60
2018-12-30T11:53:12.093Z,81.60
2018-12-30T11:55:43.910Z,82.40
2018-12-30T11:58:15.758Z,82.20
2018-12-30T12:00:47.137Z,82.80
2018-12-30T12:03:18.663Z,88.00
2018-12-30T12:05:50.459Z,83.80
2018-12-30T12:08:22.109Z,89.00
2018-12-30T12:10:53.346Z,82.00
2018-12-30T12:13:24.727Z,87.00
2018-12-30T12:15:56.247Z,99.20
2018-12-30T12:18:27.811Z,88.00
2018-12-30T12:20:59.212Z,99.50
2018-12-30T12:23:30.753Z,96.50
2018-12-30T12:26:02.726Z,100.25
2018-12-30T12:28:35.821Z,109.00
2018-12-30T12:31:07.094Z,114.25
2018-12-30T12:33:38.584Z,119.75
2018-12-30T12:36:09.767Z,189.75
2018-12-30T12:38:41.416Z,208.00
2018-12-30T12:41:12.699Z,184.75
2018-12-30T12:43:44.192Z,168.00
2018-12-30T12:46:15.391Z,155.00
2018-12-30T12:48:46.873Z,159.00
2018-12-30T12:51:18.360Z,151.75
2018-12-30T12:53:49.696Z,151.75
2018-12-30T12:56:21.395Z,172.25
2018-12-30T12:58:52.572Z,173.25
2018-12-30T13:01:23.749Z,161.00
2018-12-30T13:03:55.292Z,163.00
2018-12-30T13:06:27.421Z,160.75
2018-12-30T13:09:01.018Z,165.50
2018-12-30T13:11:33.704Z,156.75
2018-12-30T13:14:05.610Z,164.00
2018-12-30T13:16:37.306Z,170.50
2018-12-30T13:19:09.269Z,164.75
2018-12-30T13:21:40.904Z,163.00
2018-12-30T13:24:12.344Z,168.00
2018-12-30T13:26:44.327Z,176.00
2018-12-30T13:29:16.143Z,171.75
2018-12-30T13:31:47.698Z,176.25
2018-12-30T13:34:19.504Z,183.50
2018-12-30T13:36:52.497Z,181.50
2018-12-30T13:39:25.492Z,181.00
2018-12-30T13:41:57.353Z,176.25
2018-12-30T13:44:29.294Z,186.25
2018-12-30T13:47:01.954Z,183.75
2018-12-30T13:49:34.656Z,186.75
2018-12-30T13:52:06.086Z,191.00
2018-12-30T13:54:37.625Z,206.50
2018-12-30T13:57:09.879Z,197.75
2018-12-30T13:59:44.978Z,203.50
2018-12-30T14:02:16.450Z,212.50
2018-12-30T14:04:47.640Z,203.00
2018-12-30T14:07:19.468Z,214.25
2018-12-30T14:09:50.742Z,219.60
2018-12-30T14:12:22.038Z,232.40
2018-12-30T14:14:53.481Z,234.00
2018-12-30T14:17:24.860Z,232.25
2018-12-30T14:19:56.422Z,235.80
2018-12-30T14:22:28.150Z,232.50
2018-12-30T14:24:59.808Z,260.20
2018-12-30T14:27:31.830Z,278.20
2018-12-30T14:30:03.537Z,278.20
2018-12-30T14:32:36.300Z,274.33
2018-12-30T14:35:07.920Z,255.40
2018-12-30T14:37:40.642Z,264.20
2018-12-30T14:40:12.404Z,269.40
2018-12-30T14:42:44.357Z,267.80
2018-12-30T14:45:16.001Z,251.80
2018-12-30T14:47:47.771Z,260.20
2018-12-30T14:50:19.507Z,282.17
2018-12-30T14:52:52.054Z,268.33
2018-12-30T14:55:23.685Z,265.80
2018-12-30T14:57:56.015Z,267.00
2018-12-30T15:00:27.723Z,286.40
2018-12-30T15:03:02.752Z,285.60
2018-12-30T15:05:34.403Z,278.60
2018-12-30T15:08:06.191Z,288.40
2018-12-30T15:10:38.547Z,294.40
2018-12-30T15:13:10.146Z,284.00
2018-12-30T15:15:45.629Z,301.00
2018-12-30T15:18:17.208Z,287.20
2018-12-30T15:20:48.466Z,288.80
2018-12-30T15:23:19.685Z,270.60
2018-12-30T15:25:51.016Z,280.00
2018-12-30T15:28:22.924Z,289.20
2018-12-30T15:30:54.862Z,300.40
2018-12-30T15:33:26.810Z,287.00
2018-12-30T15:35:58.459Z,291.60
2018-12-30T15:38:30.204Z,301.40
2018-12-30T15:41:01.730Z,298.67
2018-12-30T15:43:33.224Z,284.50
2018-12-30T15:46:04.774Z,302.50
2018-12-30T15:48:36.219Z,304.17
2018-12-30T15:51:08.003Z,288.33
2018-12-30T15:53:39.714Z,303.00
2018-12-30T15:56:11.314Z,300.33
2018-12-30T15:58:43.710Z,293.33
2018-12-30T16:01:15.629Z,292.17
2018-12-30T16:03:47.551Z,295.33
2018-12-30T16:06:19.015Z,300.80
2018-12-30T16:08:50.697Z,304.20
2018-12-30T17:02:27.942Z,280.33
2018-12-30T17:05:00.282Z,273.67
2018-12-30T17:07:32.136Z,293.50
2018-12-30T17:10:03.425Z,282.60
2018-12-30T17:12:35.047Z,286.50
2018-12-30T17:15:07.082Z,275.50
2018-12-30T17:17:39.080Z,275.67
2018-12-30T17:20:10.606Z,284.33
2018-12-30T17:22:42.203Z,274.67
2018-12-30T17:25:13.730Z,281.33
2018-12-30T17:27:45.160Z,289.00
2018-12-30T17:30:16.644Z,280.00
2018-12-30T17:32:48.000Z,274.33
2018-12-30T17:35:20.096Z,284.67
2018-12-30T17:37:51.523Z,275.17
2018-12-30T17:40:22.648Z,276.17
2018-12-30T17:42:54.341Z,289.83
2018-12-30T17:45:25.820Z,266.20
2018-12-30T17:47:57.553Z,277.83
2018-12-30T17:50:28.885Z,273.50
2018-12-30T17:53:00.808Z,280.50
2018-12-30T17:55:32.438Z,255.67
2018-12-30T17:58:03.936Z,259.00
2018-12-30T18:00:36.295Z,275.00
2018-12-30T18:03:08.157Z,257.00
2018-12-30T18:05:40.093Z,273.80
2018-12-30T18:08:11.737Z,252.80
2018-12-30T18:10:44.334Z,262.40
2018-12-30T18:13:15.844Z,273.20
2018-12-30T18:15:48.282Z,273.50
2018-12-30T18:18:20.665Z,251.60
2018-12-30T18:20:51.970Z,283.20
2018-12-30T18:23:23.542Z,266.20
2018-12-30T18:25:58.737Z,266.20
2018-12-30T18:28:28.452Z,272.60
2018-12-30T18:31:00.170Z,270.00
2018-12-30T18:33:31.957Z,281.50
2018-12-30T18:36:04.021Z,269.67
2018-12-30T18:38:35.485Z,280.17
2018-12-30T18:41:06.985Z,275.50
2018-12-30T18:43:38.399Z,269.67
2018-12-30T18:46:09.844Z,282.60
2018-12-30T18:48:41.531Z,273.00
2018-12-30T18:51:12.883Z,268.17
2018-12-30T18:53:44.323Z,257.80
2018-12-30T18:56:15.774Z,258.00
2018-12-30T18:58:47.386Z,265.00
2018-12-30T19:01:18.759Z,267.20
2018-12-30T19:03:50.325Z,262.20
2018-12-30T19:06:22.432Z,249.40
2018-12-30T19:08:54.333Z,266.40
2018-12-30T19:11:25.671Z,262.00
2018-12-30T19:13:57.417Z,268.60
2018-12-30T19:16:29.037Z,253.40
2018-12-30T19:19:00.763Z,248.80
2018-12-30T19:21:32.240Z,260.00
2018-12-30T19:24:03.921Z,269.20
2018-12-30T19:26:35.504Z,253.80
2018-12-30T19:29:07.036Z,261.40
2018-12-30T19:31:38.207Z,263.80
2018-12-30T19:34:09.821Z,263.40
2018-12-30T19:36:41.871Z,263.80
2018-12-30T19:39:13.182Z,254.50
2018-12-30T19:41:44.500Z,256.50
2018-12-30T19:44:15.819Z,243.60
2018-12-30T19:46:45.920Z,248.00
2018-12-30T19:49:17.540Z,237.40
2018-12-30T19:51:48.957Z,241.80
2018-12-30T19:54:20.596Z,240.00
2018-12-30T19:56:52.965Z,237.20
2018-12-30T19:59:24.729Z,225.80
2018-12-30T20:01:56.276Z,227.40
2018-12-30T20:04:27.605Z,230.75
2018-12-30T20:06:59.672Z,235.00
2018-12-30T20:09:31.329Z,224.60
2018-12-30T20:12:02.761Z,225.50
2018-12-30T20:14:34.749Z,224.00
2018-12-30T20:17:06.240Z,206.40
2018-12-30T20:19:37.496Z,221.00
2018-12-30T20:22:09.551Z,214.80
2018-12-30T20:24:40.929Z,217.40
2018-12-30T20:27:12.448Z,194.75
2018-12-30T20:29:44.066Z,200.75
2018-12-30T20:32:15.520Z,196.50
2018-12-30T20:34:46.820Z,202.00
2018-12-30T20:37:19.118Z,191.00
2018-12-30T20:39:50.787Z,176.25
2018-12-30T20:42:22.349Z,182.00
2018-12-30T20:44:53.668Z,171.75
2018-12-30T20:47:25.057Z,183.75
2018-12-30T20:49:56.572Z,182.25
2018-12-30T20:52:27.979Z,184.50
2018-12-30T20:54:59.683Z,181.00
2018-12-30T20:57:31.045Z,185.25
2018-12-30T21:00:02.618Z,176.25
2018-12-30T21:02:34.187Z,178.25
2018-12-30T21:05:05.976Z,181.00
2018-12-30T21:07:37.673Z,179.50
2018-12-30T21:10:09.430Z,179.00
2018-12-30T21:12:40.866Z,180.75
2018-12-30T21:15:12.304Z,172.75
2018-12-30T21:17:43.950Z,172.75
2018-12-30T21:20:16.164Z,173.75
2018-12-30T21:22:47.575Z,167.75
2018-12-30T21:25:19.631Z,170.50
2018-12-30T21:27:51.278Z,170.00
2018-12-30T21:30:22.857Z,169.25
2018-12-30T21:32:54.366Z,173.50
2018-12-30T21:35:25.819Z,165.25
2018-12-30T21:37:57.616Z,168.50
2018-12-30T21:40:28.969Z,161.25
2018-12-30T21:43:00.478Z,155.00
2018-12-30T21:45:32.737Z,168.25
2018-12-30T21:48:04.391Z,159.75
2018-12-30T21:50:36.025Z,167.50
2018-12-30T21:53:07.558Z,173.75
2018-12-30T21:55:39.069Z,168.75
2018-12-30T21:58:10.346Z,167.75
2018-12-30T22:00:41.689Z,165.00
2018-12-30T22:03:13.269Z,165.00
2018-12-30T22:05:44.719Z,169.25
2018-12-30T22:08:16.815Z,160.75
2018-12-30T22:10:48.261Z,155.00
2018-12-30T22:13:19.985Z,153.25
2018-12-30T22:15:51.385Z,150.25
2018-12-30T22:18:22.786Z,149.75
2018-12-30T22:20:53.991Z,153.75
2018-12-30T22:23:25.493Z,162.25
2018-12-30T22:25:57.488Z,159.75
2018-12-30T22:28:29.252Z,146.75
2018-12-30T22:31:01.178Z,163.25
2018-12-30T22:33:32.474Z,159.50
2018-12-30T22:36:03.772Z,155.00
2018-12-30T22:38:35.831Z,148.50
2018-12-30T22:41:07.549Z,158.50
2018-12-30T22:43:39.229Z,144.50
2018-12-30T22:46:10.689Z,155.50
2018-12-30T22:48:42.368Z,146.25
2018-12-30T22:51:13.962Z,140.50
2018-12-30T22:53:45.601Z,155.75
2018-12-30T22:56:17.243Z,161.50
2018-12-30T22:58:49.238Z,148.50
2018-12-30T23:01:25.403Z,152.75
2018-12-30T23:03:56.802Z,153.00
2018-12-30T23:06:29.132Z,161.50
2018-12-30T23:09:01.333Z,156.25
2018-12-30T23:11:34.193Z,156.75
2018-12-30T23:14:05.398Z,160.25
2018-12-30T23:16:36.696Z,153.75
2018-12-30T23:19:08.309Z,151.00
2018-12-30T23:21:39.612Z,149.00
2018-12-30T23:24:10.969Z,158.00
2018-12-30T23:26:43.235Z,152.50
2018-12-30T23:29:14.854Z,148.25
2018-12-30T23:31:46.077Z,149.50
2018-12-30T23:34:17.653Z,154.75
2018-12-30T23:36:49.287Z,161.25
2018-12-30T23:39:21.290Z,143.75
2018-12-30T23:41:52.949Z,152.25
2018-12-30T23:44:24.608Z,157.00
2018-12-30T23:46:56.538Z,157.50
2018-12-30T23:49:27.913Z,159.00
2018-12-30T23:51:59.541Z,160.50
2018-12-30T23:54:30.760Z,160.50
2018-12-30T23:57:02.424Z,162.25
2018-12-30T23:59:33.768Z,162.00
